Berkley, Iowa
Current Conditions -  °F | °C
As of 1:35 AM on Sunday 23 Nov 2014 (Local Time) from KPRO Reporting Station
Overcast Overcast  
Wind Chill: 52°   Ceiling: 900
Heat Index: 52°   Visibility: 10mi
Dew Point: 51°   Wind: 15mph
Humidity: 95%   Direction: 190°S
Pressure: 29.55"   Gusts: NA
Location:  41.8713°N, 94.0973°W
Report Text: KPRO 230735Z AUTO 19013KT 10SM OVC009 11/10 A2955 RMK AO2 T01110103
Loading
Personal Weather Stations






























Interactive Weather Map New forecast layout! Learn more

10-Day Weather Forecast

Advertisements
Track Severe Weather on mobile